Time;durP1;ratioP1;P1;durP2;ratioP2;P2;SDS_P1;SDS_P2;PMS_P1;PMS_P2;Temp;Humidity;BMP_temperature;BMP_pressure;BME280_temperature;BME280_humidity;BME280_pressure;Samples;Min_cycle;Max_cycle;Signal;HPM_P1;HPM_P2
2022/06/29 00:00:43;;;;;;;2.22;2.03;;;;;;;18.23;91.77;95774.38;5080716;28;20115;-65
2022/06/29 00:03:09;;;;;;;3.25;2.38;;;;;;;18.25;90.31;95775.03;5072355;28;20082;-65
2022/06/29 00:05:35;;;;;;;5.50;2.38;;;;;;;18.25;90.33;95772.34;5080605;28;20035;-65
2022/06/29 00:08:00;;;;;;;3.13;2.00;;;;;;;18.21;90.02;95773.75;5078420;28;20025;-65
2022/06/29 00:10:26;;;;;;;3.60;2.20;;;;;;;18.18;90.61;95769.59;5081479;28;20054;-65
2022/06/29 00:12:52;;;;;;;2.65;2.45;;;;;;;18.19;90.54;95768.59;5086249;28;20502;-65
2022/06/29 00:15:19;;;;;;;4.95;2.20;;;;;;;18.16;90.41;95758.31;5083506;28;20070;-65
2022/06/29 00:17:44;;;;;;;4.38;2.63;;;;;;;18.11;91.46;95766.88;5079061;28;20025;-65
2022/06/29 00:20:10;;;;;;;3.33;2.50;;;;;;;18.09;91.42;95765.41;5086182;28;20082;-65
2022/06/29 00:22:36;;;;;;;2.53;2.33;;;;;;;18.11;90.92;95755.41;5081153;28;20032;-65
2022/06/29 00:25:03;;;;;;;2.17;2.08;;;;;;;18.08;91.55;95753.94;5094178;28;20013;-65
2022/06/29 00:27:29;;;;;;;2.30;2.10;;;;;;;18.03;91.80;95743.84;5089760;28;20597;-65
2022/06/29 00:29:54;;;;;;;3.72;2.40;;;;;;;18.04;91.82;95747.31;5089007;28;20032;-65
2022/06/29 00:32:19;;;;;;;3.75;2.40;;;;;;;18.03;91.95;95743.00;5085491;28;20482;-65
2022/06/29 00:34:45;;;;;;;3.58;2.40;;;;;;;18.01;91.70;95745.84;5086668;28;20020;-65
2022/06/29 00:37:11;;;;;;;3.58;2.22;;;;;;;17.95;91.70;95745.78;5087013;28;20020;-64
2022/06/29 00:39:36;;;;;;;2.30;2.20;;;;;;;17.91;92.56;95745.31;5081113;28;20085;-65
2022/06/29 00:42:03;;;;;;;3.28;2.20;;;;;;;17.88;92.63;95743.03;5088211;28;20028;-65
2022/06/29 00:44:29;;;;;;;6.78;2.35;;;;;;;17.87;93.09;95742.19;5086302;28;20099;-65
2022/06/29 00:47:00;;;;;;;2.33;2.13;;;;;;;17.87;93.20;95744.03;5083565;28;20025;-65
2022/06/29 00:49:27;;;;;;;2.50;2.30;;;;;;;17.87;92.98;95741.38;5080187;28;20027;-65
2022/06/29 00:52:12;;;;;;;4.03;2.53;;;;;;;17.84;93.96;95742.56;5085889;28;20044;-65
2022/06/29 00:54:46;;;;;;;;;;;;;;;17.84;93.93;95747.06;5083283;28;20020;-65
2022/06/29 00:57:17;;;;;;;2.78;2.42;;;;;;;17.83;94.39;95740.91;5076703;28;19927;-65
2022/06/29 00:59:44;;;;;;;6.38;2.33;;;;;;;17.82;93.78;95741.91;5081543;28;20087;-65
2022/06/29 01:02:11;;;;;;;3.15;2.47;;;;;;;17.83;93.48;95734.78;5083556;28;20559;-65
2022/06/29 01:04:37;;;;;;;2.90;2.70;;;;;;;17.85;94.07;95746.06;5080405;28;20027;-65
2022/06/29 01:07:04;;;;;;;3.05;2.55;;;;;;;17.86;94.06;95743.19;5086343;28;20023;-64
2022/06/29 01:09:30;;;;;;;4.43;2.72;;;;;;;17.88;93.43;95738.50;5086003;28;20024;-65
2022/06/29 01:11:55;;;;;;;2.78;2.25;;;;;;;17.90;92.88;95733.00;5084491;28;20104;-64
2022/06/29 01:14:21;;;;;;;2.90;2.70;;;;;;;17.89;93.46;95734.00;5077570;28;20099;-65
2022/06/29 01:16:47;;;;;;;2.65;1.90;;;;;;;17.89;94.20;95739.34;5089049;28;20020;-65
2022/06/29 01:19:12;;;;;;;4.32;2.20;;;;;;;17.88;94.11;95740.34;5064889;28;20522;-65
2022/06/29 01:21:39;;;;;;;6.00;2.33;;;;;;;17.87;94.01;95738.72;5086876;28;20036;-65
2022/06/29 01:24:05;;;;;;;3.22;2.88;;;;;;;17.84;94.10;95731.09;5085622;28;20469;-65
2022/06/29 01:26:30;;;;;;;2.58;2.38;;;;;;;17.84;94.13;95733.75;5074146;28;20021;-65
2022/06/29 01:28:56;;;;;;;2.60;2.40;;;;;;;17.81;94.32;95726.97;5085509;28;20028;-65
2022/06/29 01:31:21;;;;;;;2.95;2.75;;;;;;;17.83;94.63;95726.78;5082354;28;20028;-65
2022/06/29 01:33:48;;;;;;;9.00;2.70;;;;;;;17.83;94.54;95726.78;5081302;28;20021;-65
2022/06/29 01:36:15;;;;;;;4.43;2.70;;;;;;;17.80;94.89;95721.84;5068056;28;20442;-65
2022/06/29 01:38:42;;;;;;;2.95;2.65;;;;;;;17.78;95.20;95726.50;5087816;28;20508;-65
2022/06/29 01:41:10;;;;;;;6.35;2.47;;;;;;;17.66;96.50;95719.00;5087873;28;20411;-65
2022/06/29 01:43:38;;;;;;;2.40;2.20;;;;;;;17.57;97.56;95720.09;5080076;28;20016;-65
2022/06/29 01:46:03;;;;;;;2.83;2.63;;;;;;;17.52;97.62;95720.66;5085161;28;20016;-65
2022/06/29 01:48:29;;;;;;;3.25;2.42;;;;;;;17.51;98.13;95718.19;5084521;28;20506;-65
2022/06/29 01:50:54;;;;;;;3.10;2.80;;;;;;;17.51;98.72;95713.69;5066726;28;20166;-65
2022/06/29 01:53:20;;;;;;;2.80;2.60;;;;;;;17.50;98.29;95711.22;5078306;28;20027;-65
2022/06/29 01:55:46;;;;;;;3.13;2.92;;;;;;;17.49;98.67;95705.06;5081114;28;20044;-65
2022/06/29 01:58:13;;;;;;;3.00;2.63;;;;;;;17.46;97.93;95711.59;5081045;28;20032;-65
2022/06/29 02:00:38;;;;;;;2.42;2.33;;;;;;;17.42;98.71;95710.31;5083022;28;20036;-65
2022/06/29 02:03:04;;;;;;;3.13;2.85;;;;;;;17.41;98.69;95710.47;5076501;28;20024;-65
2022/06/29 02:05:29;;;;;;;5.15;2.90;;;;;;;17.36;99.65;95702.22;5081588;28;20031;-65
2022/06/29 02:07:54;;;;;;;2.70;2.50;;;;;;;17.37;98.75;95702.06;5079716;28;20510;-65
2022/06/29 02:10:20;;;;;;;5.25;2.60;;;;;;;17.48;97.53;95703.44;5081115;28;20069;-65
2022/06/29 02:12:45;;;;;;;6.35;2.80;;;;;;;17.39;98.20;95701.84;5082895;28;20035;-65
2022/06/29 02:15:11;;;;;;;2.58;2.45;;;;;;;17.35;98.44;95698.72;5075861;28;20491;-65
2022/06/29 02:17:36;;;;;;;3.58;2.85;;;;;;;17.28;99.32;95696.00;5075031;28;20028;-65
2022/06/29 02:20:03;;;;;;;4.38;2.55;;;;;;;17.22;99.91;95702.03;5078210;28;20491;-66
2022/06/29 02:22:28;;;;;;;4.10;2.60;;;;;;;17.25;99.40;95708.84;5079716;28;20040;-66
2022/06/29 02:24:53;;;;;;;2.42;2.22;;;;;;;17.30;99.14;95704.63;5082806;28;20051;-65
2022/06/29 02:27:19;;;;;;;8.95;2.67;;;;;;;17.35;99.08;95700.56;5078748;28;20028;-65
2022/06/29 02:29:45;;;;;;;2.95;2.65;;;;;;;17.37;98.80;95704.72;5085157;28;20102;-66
2022/06/29 02:34:54;;;;;;;3.63;2.50;;;;;;;17.42;98.09;95702.31;5077567;28;20028;-66
2022/06/29 02:37:20;;;;;;;3.95;3.03;;;;;;;17.43;97.85;95700.47;5093570;28;20407;-66
2022/06/29 02:39:45;;;;;;;5.70;3.22;;;;;;;17.42;97.97;95691.69;5078490;28;20047;-66
2022/06/29 02:42:12;;;;;;;7.10;2.80;;;;;;;17.44;98.05;95696.78;5081365;28;20031;-66
2022/06/29 02:44:38;;;;;;;2.97;2.78;;;;;;;17.45;98.28;95685.13;5085157;28;20475;-65
2022/06/29 02:47:07;;;;;;;3.03;2.75;;;;;;;17.43;98.66;95690.66;5079441;28;20555;-66
2022/06/29 02:49:33;;;;;;;3.70;2.90;;;;;;;17.44;99.57;95680.84;5084552;28;20063;-65
2022/06/29 02:51:59;;;;;;;2.60;2.40;;;;;;;17.44;99.81;95684.34;5080917;28;20024;-65
2022/06/29 02:54:25;;;;;;;7.22;2.85;;;;;;;17.44;100.00;95684.34;5084063;28;20020;-66
2022/06/29 02:56:50;;;;;;;5.05;3.22;;;;;;;17.47;100.00;95689.28;5083232;28;20434;-66
2022/06/29 02:59:16;;;;;;;6.07;3.28;;;;;;;17.47;100.00;95693.78;5090729;28;20032;-66
2022/06/29 03:01:41;;;;;;;4.03;3.03;;;;;;;17.42;100.00;95686.34;5090992;28;20019;-65
2022/06/29 03:04:07;;;;;;;3.67;3.38;;;;;;;17.45;100.00;95685.13;5089157;28;20403;-66
2022/06/29 03:06:32;;;;;;;3.85;3.45;;;;;;;17.44;100.00;95694.13;5075489;28;20112;-66
2022/06/29 03:08:57;;;;;;;9.68;3.58;;;;;;;17.42;100.00;95696.16;5080437;28;20051;-66
2022/06/29 03:11:24;;;;;;;5.75;3.50;;;;;;;17.41;100.00;95686.53;5093575;28;20089;-65
2022/06/29 03:13:49;;;;;;;6.72;4.25;;;;;;;17.46;100.00;95694.78;5093725;28;20028;-66
2022/06/29 03:16:15;;;;;;;7.22;4.53;;;;;;;17.48;100.00;95695.44;5079485;28;20024;-65
2022/06/29 03:18:40;;;;;;;7.88;4.30;;;;;;;17.46;100.00;95695.63;5084965;28;20479;-65
2022/06/29 03:21:06;;;;;;;4.47;3.97;;;;;;;17.43;100.00;95696.00;5082640;28;20028;-66
2022/06/29 03:23:31;;;;;;;8.93;4.28;;;;;;;17.43;100.00;95703.97;5080175;28;20032;-65
2022/06/29 03:25:57;;;;;;;7.03;4.20;;;;;;;17.43;100.00;95700.47;5082209;28;20415;-65
2022/06/29 03:28:22;;;;;;;8.40;4.40;;;;;;;17.40;100.00;95708.81;5079794;28;20035;-66
2022/06/29 03:30:48;;;;;;;4.47;4.18;;;;;;;17.35;100.00;95695.25;5088869;28;20145;-65
2022/06/29 03:33:13;;;;;;;5.50;3.88;;;;;;;17.32;100.00;95696.44;5077469;28;20028;-66
2022/06/29 03:35:38;;;;;;;5.60;3.90;;;;;;;17.35;100.00;95698.72;5092584;28;20059;-65
2022/06/29 03:38:04;;;;;;;4.13;3.80;;;;;;;17.37;100.00;95706.53;5087528;28;20050;-66
2022/06/29 03:40:29;;;;;;;7.00;4.25;;;;;;;17.38;100.00;95702.88;5087529;28;20479;-66
2022/06/29 03:42:55;;;;;;;6.03;4.38;;;;;;;17.43;100.00;95705.78;5086013;28;20020;-66
2022/06/29 03:45:22;;;;;;;4.32;3.90;;;;;;;17.44;100.00;95710.09;5079610;28;20048;-66
2022/06/29 03:47:47;;;;;;;5.00;4.45;;;;;;;17.43;100.00;95705.78;5082381;28;20027;-66
2022/06/29 03:50:13;;;;;;;4.28;3.88;;;;;;;17.45;100.00;95717.06;5078864;28;20024;-66
2022/06/29 03:52:39;;;;;;;8.90;4.28;;;;;;;17.43;100.00;95713.78;5079133;28;20488;-66
2022/06/29 03:55:06;;;;;;;7.40;4.20;;;;;;;17.44;100.00;95713.59;5079939;28;20019;-66
2022/06/29 03:57:31;;;;;;;5.07;4.10;;;;;;;17.49;100.00;95714.88;5083374;28;20502;-66
2022/06/29 03:59:57;;;;;;;3.97;3.67;;;;;;;17.49;100.00;95709.56;5083277;28;20091;-66
2022/06/29 04:02:23;;;;;;;5.43;3.40;;;;;;;17.48;100.00;95714.06;5083666;28;20051;-66
2022/06/29 04:04:48;;;;;;;7.20;4.25;;;;;;;17.49;100.00;95706.91;5081534;28;20487;-66
2022/06/29 04:07:13;;;;;;;6.55;4.28;;;;;;;17.45;100.00;95706.44;5073915;28;20027;-66
2022/06/29 04:09:39;;;;;;;4.22;3.83;;;;;;;17.46;100.00;95706.25;5089666;28;20483;-66
2022/06/29 04:12:05;;;;;;;4.70;3.85;;;;;;;17.49;100.00;95704.22;5089328;28;20020;-66
2022/06/29 04:14:30;;;;;;;4.60;4.18;;;;;;;17.50;100.00;95700.56;5089545;28;20024;-66
2022/06/29 04:16:57;;;;;;;3.95;3.55;;;;;;;17.51;100.00;95707.53;5088354;28;20056;-67
2022/06/29 04:19:23;;;;;;;4.43;3.75;;;;;;;17.51;100.00;95703.06;5089958;28;20072;-66
2022/06/29 04:21:49;;;;;;;4.10;3.80;;;;;;;17.49;100.00;95699.75;5088201;28;20027;-66
2022/06/29 04:24:15;;;;;;;3.88;3.60;;;;;;;17.50;100.00;95700.56;5089355;28;20039;-66
2022/06/29 04:26:41;;;;;;;3.70;3.40;;;;;;;17.45;100.00;95698.44;5089423;28;20495;-66
2022/06/29 04:29:07;;;;;;;3.70;3.50;;;;;;;17.47;100.00;95696.44;5089452;28;20031;-66
2022/06/29 04:31:33;;;;;;;3.70;3.40;;;;;;;17.46;100.00;95700.94;5089601;28;20058;-67
2022/06/29 04:33:59;;;;;;;4.47;3.78;;;;;;;17.45;100.00;95690.47;5071147;28;20030;-66
2022/06/29 04:36:24;;;;;;;5.00;3.40;;;;;;;17.41;100.00;95692.69;5089949;28;20024;-66
2022/06/29 04:38:49;;;;;;;3.30;3.00;;;;;;;17.42;100.00;95689.03;5089529;28;20085;-66
2022/06/29 04:41:15;;;;;;;3.53;3.10;;;;;;;17.43;100.00;95679.19;5089034;28;20024;-66
2022/06/29 04:43:41;;;;;;;3.90;3.00;;;;;;;17.44;98.88;95676.34;5089494;28;20024;-66
2022/06/29 04:46:22;;;;;;;4.18;3.40;;;;;;;17.46;99.21;95684.97;5088650;28;20419;-66
2022/06/29 04:48:49;;;;;;;4.45;3.42;;;;;;;17.38;99.59;95678.91;5089259;28;20032;-66
2022/06/29 04:51:17;;;;;;;3.50;3.20;;;;;;;17.40;100.00;95676.91;5088931;28;20067;-66
2022/06/29 04:53:46;;;;;;;4.47;3.63;;;;;;;17.43;100.00;95674.69;5089076;28;20024;-65
2022/06/29 04:56:12;;;;;;;3.90;3.25;;;;;;;17.46;100.00;95674.31;5092862;28;20052;-66
2022/06/29 04:58:38;;;;;;;5.13;3.42;;;;;;;17.49;99.75;95672.31;5092892;28;20020;-66
2022/06/29 05:01:04;;;;;;;4.35;3.42;;;;;;;17.47;99.06;95678.63;5093167;28;20024;-66
2022/06/29 05:03:30;;;;;;;4.28;3.42;;;;;;;17.50;98.61;95669.47;5093334;28;20024;-66
2022/06/29 05:05:55;;;;;;;3.47;3.15;;;;;;;17.49;98.88;95674.97;5093091;28;20043;-66
2022/06/29 05:08:20;;;;;;;3.58;3.13;;;;;;;17.45;98.94;95667.34;5092690;28;20032;-66
2022/06/29 05:10:46;;;;;;;3.65;3.00;;;;;;;17.47;98.87;95670.66;5092570;28;20115;-66
2022/06/29 05:13:11;;;;;;;3.30;3.00;;;;;;;17.49;98.38;95667.81;5092426;28;20036;-66
2022/06/29 05:15:37;;;;;;;4.78;2.88;;;;;;;17.53;98.89;95665.59;5092643;28;20024;-66
2022/06/29 05:18:03;;;;;;;4.60;2.70;;;;;;;17.60;97.28;95667.31;5092751;28;20024;-66
2022/06/29 05:20:29;;;;;;;3.85;3.47;;;;;;;17.65;96.98;95668.59;5091281;28;20032;-66
2022/06/29 05:22:54;;;;;;;3.60;2.90;;;;;;;17.64;96.63;95667.78;5092766;28;20047;-66
2022/06/29 05:25:20;;;;;;;3.20;2.97;;;;;;;17.68;96.10;95670.88;5091066;28;20031;-66
2022/06/29 05:27:46;;;;;;;3.20;3.00;;;;;;;17.72;95.51;95673.00;5091041;28;20024;-66
2022/06/29 05:30:12;;;;;;;4.95;2.72;;;;;;;17.76;94.78;95670.78;5092462;28;20036;-66
2022/06/29 05:32:37;;;;;;;3.38;3.00;;;;;;;17.79;95.26;95664.25;5092332;28;20106;-66
2022/06/29 05:35:04;;;;;;;7.38;2.90;;;;;;;17.82;95.90;95663.91;5092522;28;20024;-66
2022/06/29 05:37:30;;;;;;;2.75;2.55;;;;;;;17.90;95.26;95667.25;5092254;28;20078;-66
2022/06/29 05:39:56;;;;;;;3.20;2.85;;;;;;;18.01;93.96;95662.44;5092207;28;20024;-65
2022/06/29 05:42:21;;;;;;;3.53;3.20;;;;;;;18.06;93.30;95657.41;5092378;28;20028;-65
2022/06/29 05:44:46;;;;;;;4.25;2.80;;;;;;;18.09;92.66;95666.84;5091962;28;20425;-66
2022/06/29 05:47:14;;;;;;;4.88;2.88;;;;;;;18.10;92.34;95666.66;5091667;28;20040;-66
2022/06/29 05:49:39;;;;;;;5.30;2.85;;;;;;;18.16;91.36;95667.72;5091368;28;20062;-66
2022/06/29 05:52:05;;;;;;;4.68;3.10;;;;;;;18.08;91.72;95660.69;5092044;28;20051;-66
2022/06/29 05:54:31;;;;;;;2.75;2.55;;;;;;;18.04;91.46;95665.59;5091990;28;20039;-66
2022/06/29 05:56:56;;;;;;;6.35;2.92;;;;;;;18.02;92.17;95661.47;5091677;28;20115;-66
2022/06/29 05:59:22;;;;;;;3.17;2.80;;;;;;;17.98;93.50;95665.50;5091957;28;20052;-66
2022/06/29 06:01:47;;;;;;;7.85;3.95;;;;;;;18.00;94.61;95658.13;5091596;28;20035;-66
2022/06/29 06:04:12;;;;;;;5.65;4.10;;;;;;;17.97;96.23;95669.16;5091885;28;20055;-66
2022/06/29 06:06:38;;;;;;;5.18;4.22;;;;;;;17.96;96.45;95668.31;5095756;28;20037;-66
2022/06/29 06:09:03;;;;;;;5.15;4.22;;;;;;;17.93;96.61;95665.22;5105573;28;20026;-66
2022/06/29 06:11:28;;;;;;;5.75;4.47;;;;;;;17.94;97.25;95666.88;5097574;28;20475;-66
2022/06/29 06:13:54;;;;;;;5.80;4.50;;;;;;;17.89;98.53;95659.44;5091422;28;20410;-67
2022/06/29 06:16:19;;;;;;;6.25;4.82;;;;;;;17.92;98.80;95660.94;5088387;28;20019;-66
2022/06/29 06:18:45;;;;;;;7.85;5.80;;;;;;;17.95;98.96;95668.53;5091065;28;20099;-66
2022/06/29 06:21:10;;;;;;;5.20;4.70;;;;;;;17.97;98.92;95664.66;5089997;28;20475;-67
2022/06/29 06:23:35;;;;;;;8.23;5.68;;;;;;;17.99;98.43;95667.94;5090823;28;20546;-66
2022/06/29 06:26:01;;;;;;;6.30;5.22;;;;;;;18.02;98.42;95667.63;5094426;28;20024;-66
2022/06/29 06:28:26;;;;;;;5.82;5.20;;;;;;;18.13;98.12;95657.47;5088573;28;20028;-65
2022/06/29 06:30:51;;;;;;;14.18;5.82;;;;;;;18.15;97.49;95666.09;5087618;28;20458;-66
2022/06/29 06:33:17;;;;;;;6.55;6.00;;;;;;;18.15;97.57;95666.09;5091076;28;20024;-64
2022/06/29 06:35:42;;;;;;;10.75;5.35;;;;;;;18.18;97.29;95666.53;5089802;28;20081;-66
2022/06/29 06:38:07;;;;;;;7.13;5.95;;;;;;;18.20;97.41;95665.53;5089958;28;20042;-64
2022/06/29 06:43:17;;;;;;;7.13;6.00;;;;;;;18.24;96.83;95662.31;5091633;28;20046;-65
2022/06/29 06:45:42;;;;;;;6.10;5.55;;;;;;;18.27;96.57;95667.25;5091332;28;20032;-66
2022/06/29 06:48:08;;;;;;;11.85;5.35;;;;;;;18.30;96.21;95664.19;5097080;28;20044;-65
2022/06/29 06:50:34;;;;;;;5.82;5.30;;;;;;;18.35;95.86;95662.78;5099201;28;20058;-66
2022/06/29 06:52:59;;;;;;;7.63;4.95;;;;;;;18.40;96.02;95665.69;5090655;28;20499;-65
2022/06/29 06:55:24;;;;;;;6.20;4.70;;;;;;;18.42;95.83;95658.31;5090411;28;20027;-65
2022/06/29 06:57:50;;;;;;;6.28;5.32;;;;;;;18.41;95.79;95662.00;5090822;28;20082;-65
2022/06/29 07:00:15;;;;;;;6.25;5.13;;;;;;;18.46;95.25;95662.28;5090681;28;20059;-65
2022/06/29 07:02:41;;;;;;;7.13;5.20;;;;;;;18.48;94.82;95662.91;5090364;28;20334;-65
2022/06/29 07:05:08;;;;;;;6.40;5.00;;;;;;;18.51;94.47;95659.84;5088694;28;20048;-65
2022/06/29 07:07:34;;;;;;;5.88;4.72;;;;;;;18.56;93.37;95669.91;5094675;28;20502;-65
2022/06/29 07:09:59;;;;;;;8.50;5.18;;;;;;;18.57;92.68;95671.59;5105106;28;20081;-65
2022/06/29 07:12:26;;;;;;;6.88;4.88;;;;;;;18.62;92.42;95674.50;5106083;28;20027;-65
2022/06/29 07:14:51;;;;;;;5.78;4.53;;;;;;;18.64;92.39;95664.47;5107746;28;20024;-65
2022/06/29 07:17:17;;;;;;;5.03;4.63;;;;;;;18.68;92.66;95667.56;5098682;28;20039;-65
2022/06/29 07:19:42;;;;;;;6.15;5.07;;;;;;;18.71;92.47;95680.53;5088764;28;20073;-65
2022/06/29 07:22:07;;;;;;;4.97;4.47;;;;;;;18.70;92.28;95679.69;5089578;28;20433;-65
2022/06/29 07:24:33;;;;;;;8.23;4.63;;;;;;;18.74;91.94;95675.59;5089872;28;20130;-65
2022/06/29 07:26:58;;;;;;;4.43;4.13;;;;;;;18.79;91.19;95672.38;5089864;28;20023;-65
2022/06/29 07:29:24;;;;;;;10.35;4.55;;;;;;;18.85;90.71;95670.78;5100744;28;20023;-65
2022/06/29 07:31:49;;;;;;;5.70;4.05;;;;;;;18.90;90.34;95671.84;5089299;28;20028;-65
2022/06/29 07:34:15;;;;;;;3.88;3.58;;;;;;;18.93;89.63;95673.28;5087922;28;20066;-65
2022/06/29 07:36:40;;;;;;;5.38;3.70;;;;;;;18.98;88.66;95672.72;5088328;28;20032;-65
2022/06/29 07:39:05;;;;;;;6.70;3.97;;;;;;;19.02;88.43;95668.66;5089349;28;20107;-65
2022/06/29 07:41:31;;;;;;;8.18;3.83;;;;;;;19.00;87.96;95678.69;5095636;28;20379;-65
2022/06/29 07:43:56;;;;;;;4.30;3.72;;;;;;;19.05;87.61;95676.25;5105351;28;20051;-65
2022/06/29 07:46:22;;;;;;;3.88;3.58;;;;;;;19.11;87.46;95677.31;5104056;28;20049;-64
2022/06/29 07:48:47;;;;;;;5.18;4.05;;;;;;;19.17;87.82;95682.72;5089639;28;20482;-65
2022/06/29 07:51:13;;;;;;;5.97;3.85;;;;;;;19.22;87.74;95686.63;5088150;28;20135;-65
2022/06/29 07:53:38;;;;;;;7.28;4.10;;;;;;;19.25;87.27;95683.56;5089028;28;20077;-64
2022/06/29 07:56:04;;;;;;;5.00;3.40;;;;;;;19.32;86.03;95679.06;5089336;28;20077;-65
2022/06/29 07:58:29;;;;;;;6.75;3.97;;;;;;;19.29;85.49;95679.47;5088667;28;20028;-65
2022/06/29 08:00:55;;;;;;;3.95;3.53;;;;;;;19.34;86.79;95685.03;5089257;28;20390;-65
2022/06/29 08:03:20;;;;;;;3.60;3.30;;;;;;;19.38;85.53;95678.31;5089293;28;20020;-64
2022/06/29 08:05:45;;;;;;;3.28;2.88;;;;;;;19.49;85.14;95682.25;5089220;28;20012;-65
2022/06/29 08:08:12;;;;;;;3.75;3.45;;;;;;;19.59;84.76;95673.88;5086099;28;20032;-65
2022/06/29 08:10:37;;;;;;;6.40;3.63;;;;;;;19.61;83.75;95675.31;5085724;28;20099;-65
2022/06/29 08:13:02;;;;;;;3.83;3.42;;;;;;;19.60;83.87;95676.34;5089148;28;20166;-65
2022/06/29 08:15:29;;;;;;;4.35;3.55;;;;;;;19.67;83.19;95673.69;5088737;28;20032;-65
2022/06/29 08:17:54;;;;;;;4.93;3.22;;;;;;;19.73;82.92;95672.88;5088935;28;20052;-65
2022/06/29 08:20:20;;;;;;;4.97;3.40;;;;;;;19.76;82.44;95682.38;5083562;28;20731;-65
2022/06/29 08:22:46;;;;;;;7.75;3.00;;;;;;;19.80;81.85;95678.25;5088853;28;20447;-65
2022/06/29 08:25:13;;;;;;;7.35;3.35;;;;;;;19.78;81.71;95679.47;5089499;28;20032;-65
2022/06/29 08:27:39;;;;;;;4.90;3.78;;;;;;;19.73;82.53;95675.56;5088878;28;20055;-64
2022/06/29 08:30:06;;;;;;;5.50;3.47;;;;;;;19.81;81.41;95673.75;5091085;28;20031;-65
2022/06/29 08:32:31;;;;;;;5.85;3.20;;;;;;;19.88;80.34;95677.25;5095818;28;20028;-64
2022/06/29 08:34:59;;;;;;;3.90;2.90;;;;;;;19.92;80.17;95675.88;5092899;28;20073;-65
2022/06/29 08:37:25;;;;;;;3.97;3.50;;;;;;;19.95;80.28;95675.47;5093007;28;20049;-65
2022/06/29 08:39:51;;;;;;;4.68;3.33;;;;;;;19.99;80.05;95676.69;5092530;28;20383;-65
2022/06/29 08:42:21;;;;;;;4.13;3.78;;;;;;;20.18;79.89;95674.28;5092377;28;20031;-65
2022/06/29 08:44:47;;;;;;;3.70;3.40;;;;;;;20.20;79.63;95672.22;5092956;28;20024;-65
2022/06/29 08:47:13;;;;;;;3.97;3.10;;;;;;;20.26;78.66;95674.09;5074798;28;20032;-65
2022/06/29 08:49:39;;;;;;;4.18;3.15;;;;;;;20.29;78.19;95676.34;5091982;28;20034;-65
2022/06/29 08:52:06;;;;;;;4.97;2.80;;;;;;;20.28;77.00;95677.38;5092502;28;20036;-65
2022/06/29 08:54:35;;;;;;;3.35;3.15;;;;;;;20.31;76.96;95676.97;5092599;28;20016;-65
2022/06/29 08:57:03;;;;;;;3.53;3.20;;;;;;;20.37;77.72;95677.19;5092253;28;20418;-65
2022/06/29 08:59:29;;;;;;;5.03;3.08;;;;;;;20.46;77.01;95675.97;5090074;28;20792;-65
2022/06/29 09:01:54;;;;;;;5.53;3.28;;;;;;;20.52;77.85;95672.47;5098584;28;20028;-65
2022/06/29 09:04:20;;;;;;;3.90;3.40;;;;;;;20.68;76.14;95670.44;5092257;28;20115;-65
2022/06/29 09:06:46;;;;;;;3.78;3.40;;;;;;;20.87;74.39;95674.13;5095835;28;20023;-65
2022/06/29 09:09:14;;;;;;;3.50;3.20;;;;;;;21.04;73.33;95672.69;5088942;28;20031;-65
2022/06/29 09:11:43;;;;;;;3.22;3.00;;;;;;;21.24;73.48;95666.47;5110151;28;20038;-65
2022/06/29 09:14:09;;;;;;;3.25;2.72;;;;;;;21.47;72.01;95665.16;5101991;28;20024;-65
2022/06/29 09:16:56;;;;;;;3.35;3.05;;;;;;;21.85;70.42;95660.91;5086074;28;20035;-65
2022/06/29 09:19:24;;;;;;;3.70;3.40;;;;;;;22.89;66.80;95665.97;5090000;28;20050;-65
2022/06/29 09:21:55;;;;;;;4.80;2.92;;;;;;;23.53;62.23;95659.56;5084741;28;20123;-65
2022/06/29 09:24:28;;;;;;;4.28;2.60;;;;;;;23.67;63.33;95654.84;5091875;28;20490;-66
2022/06/29 09:27:00;;;;;;;3.70;3.00;;;;;;;23.32;63.61;95647.38;5092053;28;20047;-65
2022/06/29 09:29:33;;;;;;;2.65;2.53;;;;;;;23.00;63.92;95648.31;5091601;28;20124;-66
2022/06/29 09:32:01;;;;;;;4.75;2.90;;;;;;;22.72;64.66;95644.22;5092499;28;20051;-66
2022/06/29 09:34:54;;;;;;;3.28;2.95;;;;;;;23.18;65.42;95639.47;5092344;28;20099;-66
2022/06/29 09:37:22;;;;;;;4.03;2.92;;;;;;;24.46;62.42;95629.75;5092106;28;20565;-66
2022/06/29 09:39:52;;;;;;;3.67;2.70;;;;;;;25.59;58.92;95629.88;5092336;28;20024;-66
2022/06/29 09:42:21;;;;;;;3.20;2.90;;;;;;;26.24;55.96;95635.97;5091992;28;20032;-66
2022/06/29 09:44:47;;;;;;;6.45;2.70;;;;;;;26.70;53.85;95633.19;5092030;28;20035;-66
2022/06/29 09:47:19;;;;;;;6.20;3.28;;;;;;;26.84;51.34;95628.28;5092247;28;20364;-66
2022/06/29 09:49:46;;;;;;;4.55;2.42;;;;;;;26.88;49.66;95626.78;5089349;28;20077;-66
2022/06/29 09:52:12;;;;;;;3.97;2.88;;;;;;;26.33;51.19;95632.84;5091265;28;20032;-66
2022/06/29 09:54:45;;;;;;;3.97;2.70;;;;;;;26.37;52.86;95639.41;5091370;28;20479;-66
2022/06/29 09:57:12;;;;;;;4.60;2.20;;;;;;;26.52;50.29;95634.28;5089674;28;20040;-66
2022/06/29 10:02:37;;;;;;;2.30;2.10;;;;;;;25.22;54.28;95632.84;5089938;28;20108;-67
2022/06/29 10:05:11;;;;;;;2.42;2.22;;;;;;;24.80;54.86;95631.94;5089493;28;20384;-66
2022/06/29 10:07:42;;;;;;;2.90;2.70;;;;;;;25.04;52.27;95631.91;5100489;28;20031;-67
2022/06/29 10:10:26;;;;;;;3.72;2.53;;;;;;;24.86;53.75;95622.91;5088056;28;20039;-66
2022/06/29 10:16:00;;;;;;;4.25;2.55;;;;;;;25.18;53.25;95627.94;5086860;28;20066;-66
2022/06/29 10:18:55;;;;;;;6.22;2.92;;;;;;;25.94;51.58;95628.91;5091641;28;20055;-66
2022/06/29 10:21:27;;;;;;;2.53;2.33;;;;;;;27.00;48.95;95626.66;5088569;28;20503;-66
2022/06/29 10:23:57;;;;;;;4.47;2.78;;;;;;;28.31;45.19;95627.97;5100292;28;20028;-66
2022/06/29 10:29:06;;;;;;;2.58;2.25;;;;;;;28.97;43.40;95622.53;5090958;28;20039;-67
2022/06/29 10:31:49;;;;;;;2.53;2.35;;;;;;;28.98;42.84;95626.88;5090765;28;20712;-67
2022/06/29 10:34:30;;;;;;;3.92;2.30;;;;;;;29.31;43.29;95617.56;5090257;28;20385;-66
2022/06/29 10:37:05;;;;;;;2.80;2.55;;;;;;;29.51;42.85;95620.66;5080395;28;20051;-67
2022/06/29 10:39:45;;;;;;;2.95;2.30;;;;;;;30.19;42.32;95621.72;5089472;28;20102;-68
2022/06/29 10:45:12;;;;;;;4.53;2.28;;;;;;;29.89;40.32;95615.91;5091067;28;20039;-67
2022/06/29 10:47:38;;;;;;;2.78;2.42;;;;;;;30.52;41.14;95617.66;5090961;28;20059;-66
2022/06/29 10:50:20;;;;;;;2.22;1.80;;;;;;;30.01;40.19;95602.97;5091133;28;20024;-67
2022/06/29 10:52:46;;;;;;;4.95;2.10;;;;;;;29.97;40.11;95606.44;5087442;28;20019;-67
2022/06/29 10:55:13;;;;;;;2.72;2.10;;;;;;;30.48;38.91;95608.44;5090351;28;20032;-65
2022/06/29 10:57:44;;;;;;;2.00;1.90;;;;;;;30.42;39.08;95606.81;5090469;28;20048;-67
2022/06/29 11:00:16;;;;;;;4.32;2.05;;;;;;;30.17;39.10;95600.25;5090682;28;20514;-65
2022/06/29 11:02:43;;;;;;;5.85;2.10;;;;;;;29.99;38.14;95593.41;5087688;28;20081;-65
2022/06/29 11:05:09;;;;;;;2.42;2.00;;;;;;;30.08;38.19;95593.75;5102054;28;20502;-65
2022/06/29 11:13:03;;;;;;;6.50;2.27;;;;;;;30.62;38.33;95595.16;5090817;28;20026;-65
2022/06/29 11:15:40;;;;;;;2.45;2.00;;;;;;;30.57;39.17;95582.34;5090073;28;20210;-66
2022/06/29 11:18:12;;;;;;;2.70;1.90;;;;;;;30.69;36.83;95578.59;5090128;28;20031;-65
2022/06/29 11:20:41;;;;;;;3.17;2.08;;;;;;;30.80;38.56;95588.34;5088932;28;20016;-66
2022/06/29 11:23:15;;;;;;;4.50;2.20;;;;;;;30.64;39.48;95576.69;5090073;28;20546;-67
2022/06/29 11:25:43;;;;;;;2.42;1.98;;;;;;;30.65;38.08;95578.31;5090379;28;20044;-67
2022/06/29 11:28:09;;;;;;;3.40;1.85;;;;;;;30.66;39.27;95574.50;5090122;28;20128;-66
2022/06/29 11:30:35;;;;;;;1.90;1.73;;;;;;;30.72;39.13;95578.81;5090012;28;20026;-66
2022/06/29 11:33:06;;;;;;;2.33;1.67;;;;;;;30.14;38.61;95566.34;5090263;28;20031;-67
2022/06/29 11:35:32;;;;;;;3.35;2.13;;;;;;;30.07;38.24;95563.09;5090194;28;20047;-67
2022/06/29 11:38:01;;;;;;;3.22;1.98;;;;;;;29.84;38.96;95564.38;5090317;28;20112;-67
2022/06/29 11:40:35;;;;;;;2.05;1.80;;;;;;;30.05;38.81;95554.38;5090253;28;20019;-67
2022/06/29 11:43:14;;;;;;;2.83;2.00;;;;;;;28.96;41.16;95569.44;5089015;28;20023;-67
2022/06/29 11:45:46;;;;;;;6.50;1.90;;;;;;;27.83;44.09;95562.81;5074246;28;20017;-67
2022/06/29 11:48:15;;;;;;;3.72;2.03;;;;;;;26.79;48.05;95555.28;5081704;28;20059;-67
2022/06/29 11:50:52;;;;;;;2.45;1.77;;;;;;;27.36;46.60;95553.38;5079316;28;20030;-68
2022/06/29 11:53:41;;;;;;;3.60;1.85;;;;;;;28.43;41.13;95553.91;5079243;28;20035;-67